createdAt,value
2023-01-12T00:01:59.387Z,50.05
2023-01-12T00:04:26.220Z,29.10
2023-01-12T00:06:53.187Z,42.40
2023-01-12T00:09:20.146Z,28.50
2023-01-12T00:11:47.011Z,46.78
2023-01-12T00:14:14.221Z,34.60
2023-01-12T00:16:41.478Z,33.55
2023-01-12T00:19:11.219Z,30.70
2023-01-12T00:21:58.748Z,37.50
2023-01-12T00:24:55.130Z,29.08
2023-01-12T00:27:22.395Z,37.25
2023-01-12T00:29:50.258Z,31.55
2023-01-12T00:32:20.076Z,31.17
2023-01-12T00:34:47.186Z,32.10
2023-01-12T00:37:14.633Z,29.60
2023-01-12T00:39:45.805Z,33.67
2023-01-12T00:42:34.391Z,20.25
2023-01-12T00:47:46.668Z,29.03
2023-01-12T00:50:14.618Z,29.02
2023-01-12T00:52:44.041Z,32.83
2023-01-12T00:55:11.056Z,28.05
2023-01-12T00:57:38.014Z,36.78
2023-01-12T01:00:05.520Z,40.63
2023-01-12T01:02:33.060Z,46.33
2023-01-12T01:04:59.801Z,39.40
2023-01-12T01:07:26.903Z,29.60
2023-01-12T01:09:54.005Z,32.30
2023-01-12T01:12:21.118Z,30.17
2023-01-12T01:14:48.599Z,51.30
2023-01-12T01:17:16.164Z,32.65
2023-01-12T01:19:43.959Z,24.63
2023-01-12T01:22:12.651Z,28.23
2023-01-12T01:24:39.578Z,32.63
2023-01-12T01:27:06.787Z,34.80
2023-01-12T01:29:33.699Z,34.65
2023-01-12T01:32:00.600Z,35.78
2023-01-12T01:34:27.633Z,28.80
2023-01-12T01:36:54.480Z,35.45
2023-01-12T01:39:23.821Z,30.02
2023-01-12T01:41:51.014Z,30.08
2023-01-12T01:44:30.330Z,26.52
2023-01-12T01:47:13.146Z,33.05
2023-01-12T01:49:51.572Z,39.50
2023-01-12T01:52:22.701Z,37.75
2023-01-12T01:55:13.216Z,23.40
2023-01-12T01:57:49.329Z,35.53
2023-01-12T02:00:16.908Z,26.75
2023-01-12T02:02:46.530Z,27.98
2023-01-12T02:05:17.714Z,25.98
2023-01-12T02:07:44.915Z,42.25
2023-01-12T02:10:11.983Z,33.15
2023-01-12T02:12:58.121Z,34.58
2023-01-12T02:15:47.273Z,26.65
2023-01-12T02:18:24.268Z,36.00
2023-01-12T02:21:12.372Z,31.42
2023-01-12T02:24:00.758Z,29.70
2023-01-12T02:27:00.218Z,30.77
2023-01-12T02:29:27.033Z,31.98
2023-01-12T02:31:53.949Z,30.10
2023-01-12T02:34:26.772Z,35.03
2023-01-12T02:37:24.202Z,40.63
2023-01-12T02:40:01.596Z,35.53
2023-01-12T02:42:47.884Z,25.67
2023-01-12T02:45:43.301Z,41.40
2023-01-12T02:48:43.963Z,35.35
2023-01-12T02:51:18.295Z,27.15
2023-01-12T02:53:50.899Z,27.50
2023-01-12T02:56:24.918Z,38.60
2023-01-12T02:58:56.999Z,34.07
2023-01-12T03:01:25.835Z,35.15
2023-01-12T03:03:56.256Z,43.35
2023-01-12T03:06:23.161Z,44.88
2023-01-12T03:08:52.141Z,30.77
2023-01-12T03:11:23.953Z,38.13
2023-01-12T03:13:55.698Z,25.42
2023-01-12T03:16:26.737Z,25.75
2023-01-12T03:19:09.828Z,33.55
2023-01-12T03:21:40.547Z,39.78
2023-01-12T03:24:14.596Z,33.63
2023-01-12T03:26:46.711Z,24.90
2023-01-12T03:29:22.355Z,33.50
2023-01-12T03:31:49.352Z,33.28
2023-01-12T03:34:16.476Z,38.03
2023-01-12T03:36:56.527Z,27.63
2023-01-12T03:39:29.811Z,34.55
2023-01-12T03:41:59.031Z,31.90
2023-01-12T03:44:40.329Z,35.63
2023-01-12T03:47:18.208Z,44.42
2023-01-12T03:49:51.136Z,37.85
2023-01-12T03:52:21.689Z,33.92
2023-01-12T03:54:50.296Z,37.20
2023-01-12T03:57:17.854Z,39.58
2023-01-12T03:59:44.681Z,28.77
2023-01-12T04:02:12.796Z,29.10
2023-01-12T04:04:39.823Z,36.80
2023-01-12T04:07:06.901Z,32.63
2023-01-12T04:09:33.970Z,32.35
2023-01-12T04:12:13.161Z,35.25
2023-01-12T04:14:47.765Z,29.50
2023-01-12T04:19:42.162Z,41.00
2023-01-12T04:22:32.825Z,29.60
2023-01-12T04:24:59.978Z,31.55
2023-01-12T04:27:27.084Z,28.67
2023-01-12T04:29:54.325Z,37.40
2023-01-12T04:32:21.729Z,26.48
2023-01-12T04:34:48.788Z,41.10
2023-01-12T04:37:16.006Z,26.73
2023-01-12T04:39:43.145Z,32.55
2023-01-12T04:42:29.932Z,29.63
2023-01-12T04:44:59.076Z,37.05
2023-01-12T04:47:26.127Z,38.90
2023-01-12T04:49:52.927Z,31.25
2023-01-12T04:52:19.971Z,30.63
2023-01-12T04:54:46.858Z,29.30
2023-01-12T04:57:13.829Z,36.53
2023-01-12T04:59:41.085Z,41.28
2023-01-12T05:02:08.222Z,37.13
2023-01-12T05:04:35.132Z,33.70
2023-01-12T05:07:01.799Z,30.13
2023-01-12T05:09:47.295Z,41.25
2023-01-12T05:12:14.078Z,43.00
2023-01-12T05:14:41.031Z,24.83
2023-01-12T05:17:08.000Z,41.55
2023-01-12T05:19:34.860Z,43.83
2023-01-12T05:22:02.032Z,35.13
2023-01-12T05:24:28.981Z,49.42
2023-01-12T05:26:56.472Z,23.92
2023-01-12T05:29:23.175Z,26.13
2023-01-12T05:31:50.375Z,38.88
2023-01-12T05:34:19.594Z,30.90
2023-01-12T05:36:47.581Z,32.13
2023-01-12T05:39:14.531Z,28.85
2023-01-12T05:42:01.438Z,30.90
2023-01-12T05:44:28.489Z,20.23
2023-01-12T05:46:55.350Z,16.42
2023-01-12T05:49:22.247Z,29.48
2023-01-12T05:51:49.276Z,29.23
2023-01-12T05:54:16.086Z,15.73
2023-01-12T05:56:43.752Z,26.13
2023-01-12T05:59:12.038Z,40.60
2023-01-12T06:01:40.919Z,40.95
2023-01-12T06:04:07.831Z,30.35
2023-01-12T06:06:34.776Z,25.15
2023-01-12T06:09:02.102Z,18.33
2023-01-12T06:11:47.358Z,28.40
2023-01-12T06:14:14.227Z,28.58
2023-01-12T06:16:42.975Z,32.90
2023-01-12T06:19:12.602Z,21.48
2023-01-12T06:21:40.757Z,24.23
2023-01-12T06:24:08.329Z,25.98
2023-01-12T06:26:35.421Z,23.73
2023-01-12T06:29:05.611Z,17.95
2023-01-12T06:31:33.070Z,20.27
2023-01-12T06:34:00.106Z,28.40
2023-01-12T06:36:29.229Z,32.88
2023-01-12T06:38:56.275Z,29.08
2023-01-12T06:41:41.864Z,31.13
2023-01-12T06:44:08.618Z,20.08
2023-01-12T06:46:35.615Z,21.23
2023-01-12T06:49:02.613Z,19.45
2023-01-12T06:51:29.578Z,27.88
2023-01-12T06:53:56.441Z,26.63
2023-01-12T06:56:23.913Z,16.13
2023-01-12T06:58:51.135Z,29.70
2023-01-12T07:01:18.379Z,23.52
2023-01-12T07:03:45.548Z,26.27
2023-01-12T07:06:13.092Z,26.30
2023-01-12T07:08:40.467Z,28.40
2023-01-12T07:11:15.316Z,18.08
2023-01-12T07:13:42.201Z,21.60
2023-01-12T07:16:09.311Z,28.48
2023-01-12T07:18:36.711Z,29.58
2023-01-12T07:21:13.582Z,22.17
2023-01-12T07:23:43.602Z,19.70
2023-01-12T07:26:11.256Z,25.33
2023-01-12T07:28:38.490Z,20.58
2023-01-12T07:31:06.888Z,21.73
2023-01-12T07:33:34.679Z,28.67
2023-01-12T07:36:02.581Z,30.95
2023-01-12T07:38:31.136Z,19.10
2023-01-12T07:41:02.604Z,15.00
2023-01-12T07:43:29.875Z,15.77
2023-01-12T07:45:58.616Z,18.92
2023-01-12T07:48:26.852Z,27.23
2023-01-12T07:50:54.174Z,17.70
2023-01-12T07:53:21.178Z,27.98
2023-01-12T07:55:48.251Z,17.27
2023-01-12T07:58:15.077Z,28.98
2023-01-12T08:00:41.993Z,12.98
2023-01-12T08:03:11.772Z,22.85
2023-01-12T08:05:39.299Z,21.83
2023-01-12T08:08:07.070Z,20.05
2023-01-12T08:10:34.494Z,23.17
2023-01-12T08:13:01.474Z,20.38
2023-01-12T08:15:32.087Z,15.20
2023-01-12T08:18:09.218Z,17.02
2023-01-12T08:20:37.253Z,24.48
2023-01-12T08:23:11.814Z,27.33
2023-01-12T08:25:45.452Z,23.40
2023-01-12T08:28:24.557Z,28.17
2023-01-12T08:30:52.444Z,26.83
2023-01-12T08:33:20.216Z,20.38
2023-01-12T08:35:47.590Z,19.02
2023-01-12T08:38:14.625Z,22.27
2023-01-12T08:41:00.176Z,18.90
2023-01-12T08:43:50.352Z,21.83
2023-01-12T08:46:17.479Z,24.58
2023-01-12T08:48:44.266Z,17.63
2023-01-12T08:51:11.321Z,21.85
2023-01-12T08:53:38.282Z,16.63
2023-01-12T08:56:05.599Z,13.70
2023-01-12T08:58:32.480Z,23.40
2023-01-12T09:01:07.122Z,20.83
2023-01-12T09:03:34.313Z,28.52
2023-01-12T09:06:30.237Z,25.23
2023-01-12T09:11:26.244Z,23.48
2023-01-12T09:13:53.094Z,27.70
2023-01-12T09:16:20.497Z,25.30
2023-01-12T09:18:47.304Z,33.78
2023-01-12T09:21:21.687Z,31.20
2023-01-12T09:23:52.940Z,16.92
2023-01-12T09:26:28.504Z,16.75
2023-01-12T09:28:57.243Z,15.48
2023-01-12T09:31:24.303Z,33.67
2023-01-12T09:33:52.932Z,17.42
2023-01-12T09:36:23.486Z,18.70
2023-01-12T09:38:50.795Z,20.95
2023-01-12T09:41:40.113Z,18.63
2023-01-12T09:44:37.047Z,26.30
2023-01-12T09:47:41.982Z,17.75
2023-01-12T09:50:11.088Z,16.42
2023-01-12T09:53:23.135Z,26.17
2023-01-12T09:56:08.228Z,21.55
2023-01-12T09:58:46.925Z,33.92
2023-01-12T10:01:28.242Z,20.38
2023-01-12T10:03:56.564Z,23.23
2023-01-12T10:06:23.726Z,29.88
2023-01-12T10:08:54.660Z,33.40
2023-01-12T10:11:45.581Z,19.00
2023-01-12T10:14:50.567Z,17.52
2023-01-12T10:17:45.974Z,20.20
2023-01-12T10:20:28.147Z,21.90
2023-01-12T10:23:08.327Z,22.63
2023-01-12T10:25:35.358Z,26.90
2023-01-12T10:28:17.248Z,28.17
2023-01-12T10:30:46.327Z,23.88
2023-01-12T10:33:27.101Z,21.02
2023-01-12T10:36:02.201Z,32.92
2023-01-12T10:38:29.178Z,33.88
2023-01-12T10:41:11.073Z,23.52
2023-01-12T10:43:39.753Z,25.17
2023-01-12T10:46:14.334Z,24.98
2023-01-12T10:48:49.776Z,25.48
2023-01-12T10:51:36.069Z,19.45
2023-01-12T10:54:10.805Z,30.10
2023-01-12T10:56:53.826Z,25.10
2023-01-12T10:59:24.331Z,21.50
2023-01-12T11:02:11.983Z,18.42
2023-01-12T11:04:38.920Z,28.88
2023-01-12T11:07:13.309Z,26.60
2023-01-12T11:09:44.269Z,26.15
2023-01-12T11:12:31.285Z,21.20
2023-01-12T11:15:02.793Z,31.13
2023-01-12T11:17:38.806Z,25.63
2023-01-12T11:20:30.341Z,27.17
2023-01-12T11:23:04.806Z,21.88
2023-01-12T11:25:38.712Z,26.67
2023-01-12T11:28:22.768Z,20.65
2023-01-12T11:30:51.673Z,18.80
2023-01-12T11:33:39.491Z,13.90
2023-01-12T11:36:16.122Z,19.52
2023-01-12T11:38:46.648Z,29.63
2023-01-12T11:41:30.172Z,21.70
2023-01-12T11:44:18.221Z,20.55
2023-01-12T11:46:55.092Z,20.73
2023-01-12T11:49:38.733Z,26.77
2023-01-12T11:52:09.115Z,23.20
2023-01-12T11:54:38.488Z,27.42
2023-01-12T11:57:19.466Z,24.00
2023-01-12T11:59:58.607Z,18.55
2023-01-12T12:02:47.097Z,29.35
2023-01-12T12:05:37.185Z,24.35
2023-01-12T12:08:19.314Z,20.67
2023-01-12T12:10:54.608Z,18.17
2023-01-12T12:13:33.249Z,17.35
2023-01-12T12:16:08.881Z,26.33
2023-01-12T12:18:44.399Z,19.02
2023-01-12T12:21:23.056Z,18.60
2023-01-12T12:23:59.179Z,17.55
2023-01-12T12:26:33.347Z,16.33
2023-01-12T12:29:08.981Z,19.07
2023-01-12T12:31:54.133Z,11.60
2023-01-12T12:34:37.730Z,26.38
2023-01-12T12:37:11.913Z,17.88
2023-01-12T12:39:50.553Z,10.63
2023-01-12T12:42:35.771Z,12.73
2023-01-12T12:45:18.454Z,12.10
2023-01-12T12:48:04.010Z,10.15
2023-01-12T12:50:35.578Z,13.25
2023-01-12T12:53:16.523Z,14.20
2023-01-12T12:55:45.102Z,12.70
2023-01-12T12:58:20.940Z,7.82
2023-01-12T13:00:51.509Z,14.55
2023-01-12T13:03:49.065Z,9.15
2023-01-12T13:06:26.208Z,11.55
2023-01-12T13:08:56.287Z,6.50
2023-01-12T13:11:55.531Z,15.75
2023-01-12T13:15:11.641Z,8.60
2023-01-12T13:17:43.855Z,14.05
2023-01-12T13:20:24.144Z,11.38
2023-01-12T13:22:52.754Z,10.48
2023-01-12T13:25:26.534Z,7.47
2023-01-12T13:28:18.158Z,9.35
2023-01-12T13:30:52.332Z,9.32
2023-01-12T13:33:29.439Z,12.57
2023-01-12T13:36:02.006Z,15.27
2023-01-12T13:38:39.741Z,10.00
2023-01-12T13:41:17.819Z,9.82
2023-01-12T13:43:47.574Z,4.85
2023-01-12T13:46:20.501Z,9.15
2023-01-12T13:48:50.630Z,11.35
2023-01-12T13:51:34.385Z,10.68
2023-01-12T13:54:05.533Z,8.05
2023-01-12T13:56:32.946Z,9.27
2023-01-12T13:59:02.253Z,15.68
2023-01-12T14:01:32.289Z,6.28
2023-01-12T14:04:16.315Z,8.52
2023-01-12T14:07:11.521Z,6.72
2023-01-12T14:09:57.747Z,6.90
2023-01-12T14:12:46.268Z,4.43
2023-01-12T14:15:37.307Z,8.45
2023-01-12T14:18:16.192Z,5.13
2023-01-12T14:20:44.788Z,7.40
2023-01-12T14:23:20.995Z,4.18
2023-01-12T14:26:09.923Z,5.38
2023-01-12T14:28:38.259Z,12.32
2023-01-12T14:31:30.376Z,7.00
2023-01-12T14:34:00.971Z,7.03
2023-01-12T14:36:33.883Z,4.57
2023-01-12T14:39:01.533Z,4.35
2023-01-12T14:41:49.321Z,12.73
2023-01-12T14:44:44.773Z,8.20
2023-01-12T14:47:35.100Z,8.02
2023-01-12T14:50:16.987Z,6.38
2023-01-12T14:52:46.551Z,8.75
2023-01-12T14:55:27.059Z,3.65
2023-01-12T14:58:00.997Z,9.48
2023-01-12T15:00:32.005Z,7.45
2023-01-12T15:03:01.069Z,6.95
2023-01-12T15:05:29.454Z,8.55
2023-01-12T15:07:58.375Z,9.77
2023-01-12T15:10:28.259Z,6.43
2023-01-12T15:12:57.265Z,15.90
2023-01-12T15:15:24.253Z,8.02
2023-01-12T15:18:12.256Z,8.45
2023-01-12T15:21:02.848Z,10.25
2023-01-12T15:23:51.337Z,10.98
2023-01-12T15:26:19.001Z,7.25
2023-01-12T15:28:46.489Z,7.05
2023-01-12T15:31:27.284Z,8.15
2023-01-12T15:33:54.929Z,9.93
2023-01-12T15:36:21.883Z,16.05
2023-01-12T15:38:48.858Z,10.30
2023-01-12T15:41:46.495Z,9.27
2023-01-12T15:44:14.896Z,8.25
2023-01-12T15:46:42.409Z,13.70
2023-01-12T15:49:11.322Z,8.50
2023-01-12T15:51:38.366Z,12.13
2023-01-12T15:54:05.779Z,9.30
2023-01-12T15:56:32.612Z,5.05
2023-01-12T15:58:59.358Z,4.93
2023-01-12T16:01:36.425Z,5.85
2023-01-12T16:04:40.362Z,8.43
2023-01-12T16:06:53.770Z,9.40
2023-01-12T16:09:20.686Z,9.05
2023-01-12T16:11:47.470Z,4.65
2023-01-12T16:14:15.346Z,6.85
2023-01-12T16:16:42.429Z,5.93
2023-01-12T16:19:10.218Z,8.35
2023-01-12T16:21:37.181Z,7.72
2023-01-12T16:24:04.422Z,10.40
2023-01-12T16:26:31.557Z,4.72
2023-01-12T16:28:58.566Z,12.30
2023-01-12T16:31:26.199Z,5.70
2023-01-12T16:33:53.027Z,5.65
2023-01-12T16:36:20.229Z,6.97
2023-01-12T16:38:46.939Z,10.10
2023-01-12T16:41:22.609Z,10.18
2023-01-12T16:43:51.177Z,5.22
2023-01-12T16:46:18.163Z,7.65
2023-01-12T16:48:45.160Z,9.05
2023-01-12T16:51:14.433Z,8.75
2023-01-12T16:53:41.841Z,10.70
2023-01-12T16:56:13.992Z,11.13
2023-01-12T16:58:48.690Z,4.88
2023-01-12T17:01:19.506Z,6.10
2023-01-12T17:03:47.637Z,8.50
2023-01-12T17:06:18.537Z,5.55
2023-01-12T17:08:45.744Z,3.63
2023-01-12T17:11:16.211Z,7.40
2023-01-12T17:13:43.321Z,3.97
2023-01-12T17:16:12.455Z,12.10
2023-01-12T17:18:40.306Z,5.15
2023-01-12T17:21:10.028Z,5.82
2023-01-12T17:23:39.264Z,4.38
2023-01-12T17:26:07.673Z,6.40
2023-01-12T17:28:35.286Z,8.20
2023-01-12T17:31:10.681Z,7.68
2023-01-12T17:33:38.835Z,5.38
2023-01-12T17:36:07.564Z,9.60
2023-01-12T17:38:35.693Z,5.90
2023-01-12T17:41:35.854Z,5.43
2023-01-12T17:44:04.832Z,9.18
2023-01-12T17:46:32.682Z,6.78
2023-01-12T17:49:06.680Z,8.48
2023-01-12T17:51:34.511Z,6.22
2023-01-12T17:54:03.555Z,10.50
2023-01-12T17:56:33.098Z,7.15
2023-01-12T17:59:00.915Z,12.23
2023-01-12T18:01:30.326Z,15.48
2023-01-12T18:03:58.333Z,13.38
2023-01-12T18:06:27.289Z,9.77
2023-01-12T18:08:59.631Z,4.15
2023-01-12T18:11:27.999Z,7.38
2023-01-12T18:13:57.856Z,3.55
2023-01-12T18:16:25.358Z,3.70
2023-01-12T18:18:54.100Z,8.80
2023-01-12T18:21:25.198Z,8.02
2023-01-12T18:23:53.177Z,7.78
2023-01-12T18:26:25.437Z,11.23
2023-01-12T18:28:53.749Z,5.30
2023-01-12T18:31:26.550Z,5.47
2023-01-12T18:34:04.804Z,5.60
2023-01-12T18:36:37.244Z,6.05
2023-01-12T18:39:06.426Z,7.10
2023-01-12T18:41:53.775Z,6.85
2023-01-12T18:44:22.385Z,4.75
2023-01-12T18:47:07.732Z,6.93
2023-01-12T18:49:36.393Z,5.28
2023-01-12T18:52:22.812Z,4.20
2023-01-12T18:54:52.028Z,5.45
2023-01-12T18:57:24.930Z,7.95
2023-01-12T18:59:56.458Z,3.95
2023-01-12T19:02:23.657Z,6.32
2023-01-12T19:04:51.059Z,12.38
2023-01-12T19:07:32.716Z,5.80
2023-01-12T19:10:00.345Z,8.57
2023-01-12T19:12:27.711Z,7.72
2023-01-12T19:15:13.014Z,8.23
2023-01-12T19:17:41.919Z,10.02
2023-01-12T19:20:16.128Z,6.50
2023-01-12T19:23:02.172Z,9.30
2023-01-12T19:25:48.418Z,8.15
2023-01-12T19:28:36.092Z,3.85
2023-01-12T19:31:07.540Z,4.40
2023-01-12T19:33:34.868Z,4.90
2023-01-12T19:36:10.518Z,4.63
2023-01-12T19:38:37.762Z,5.95
2023-01-12T19:41:12.067Z,5.55
2023-01-12T19:43:45.153Z,6.82
2023-01-12T19:46:15.422Z,6.63
2023-01-12T19:48:42.380Z,8.00
2023-01-12T19:51:11.441Z,7.13
2023-01-12T19:53:40.392Z,7.85
2023-01-12T19:56:11.898Z,9.88
2023-01-12T19:58:39.132Z,6.95
2023-01-12T20:01:06.163Z,7.22
2023-01-12T20:03:33.334Z,5.00
2023-01-12T20:06:05.947Z,7.35
2023-01-12T20:08:33.157Z,11.00
2023-01-12T20:11:04.886Z,15.85
2023-01-12T20:13:33.045Z,8.90
2023-01-12T20:16:04.857Z,6.45
2023-01-12T20:18:31.813Z,10.57
2023-01-12T20:21:00.543Z,10.65
2023-01-12T20:23:27.628Z,6.47
2023-01-12T20:25:54.635Z,6.25
2023-01-12T20:28:22.029Z,8.70
2023-01-12T20:30:48.887Z,11.13
2023-01-12T20:33:16.158Z,10.10
2023-01-12T20:35:48.102Z,6.15
2023-01-12T20:38:17.203Z,4.72
2023-01-12T20:40:45.667Z,6.90
2023-01-12T20:43:13.534Z,11.25
2023-01-12T20:45:42.050Z,7.45
2023-01-12T20:48:12.500Z,7.00
2023-01-12T20:50:45.205Z,11.30
2023-01-12T20:53:13.004Z,6.75
2023-01-12T20:55:50.781Z,5.13
2023-01-12T20:58:18.252Z,9.57
2023-01-12T21:00:46.008Z,8.90
2023-01-12T21:03:13.266Z,7.47
2023-01-12T21:05:44.685Z,10.77
2023-01-12T21:08:12.386Z,6.50
2023-01-12T21:10:41.102Z,7.75
2023-01-12T21:13:08.435Z,7.05
2023-01-12T21:15:35.515Z,5.00
2023-01-12T21:18:02.445Z,7.78
2023-01-12T21:20:29.515Z,11.25
2023-01-12T21:22:59.556Z,8.43
2023-01-12T21:25:29.957Z,11.75
2023-01-12T21:27:56.901Z,6.10
2023-01-12T21:30:23.801Z,11.93
2023-01-12T21:32:50.772Z,8.48
2023-01-12T21:35:18.206Z,11.75
2023-01-12T21:37:45.077Z,6.88
2023-01-12T21:40:14.496Z,8.05
2023-01-12T21:42:59.727Z,11.52
2023-01-12T21:45:26.715Z,6.43
2023-01-12T21:47:55.638Z,7.47
2023-01-12T21:50:24.403Z,14.50
2023-01-12T21:52:51.385Z,5.32
2023-01-12T21:55:19.729Z,7.53
2023-01-12T21:57:48.003Z,8.20
2023-01-12T22:00:16.032Z,11.52
2023-01-12T22:02:43.726Z,7.90
2023-01-12T22:05:11.400Z,11.23
2023-01-12T22:07:38.122Z,12.30
2023-01-12T22:10:20.472Z,11.48
2023-01-12T22:12:49.585Z,6.47
2023-01-12T22:15:17.290Z,18.63
2023-01-12T22:17:45.409Z,8.85
2023-01-12T22:20:13.045Z,17.70
2023-01-12T22:22:41.249Z,9.80
2023-01-12T22:25:11.732Z,15.27
2023-01-12T22:27:41.603Z,8.55
2023-01-12T22:30:11.307Z,10.38
2023-01-12T22:32:38.458Z,12.85
2023-01-12T22:35:05.754Z,25.27
2023-01-12T22:37:36.034Z,10.20
2023-01-12T22:40:04.276Z,12.32
2023-01-12T22:42:49.513Z,13.82
2023-01-12T22:45:16.840Z,12.23
2023-01-12T22:47:48.478Z,11.07
2023-01-12T22:50:16.092Z,11.15
2023-01-12T22:52:43.283Z,7.05
2023-01-12T22:55:10.187Z,11.00
2023-01-12T22:57:37.124Z,7.65
2023-01-12T23:00:05.038Z,11.20
2023-01-12T23:02:50.729Z,14.57
2023-01-12T23:05:17.940Z,10.52
2023-01-12T23:07:44.734Z,10.95
2023-01-12T23:10:11.655Z,10.35
2023-01-12T23:12:38.581Z,13.50
2023-01-12T23:15:05.945Z,21.10
2023-01-12T23:17:33.984Z,13.45
2023-01-12T23:20:00.960Z,7.97
2023-01-12T23:22:30.642Z,16.08
2023-01-12T23:24:57.507Z,18.90
2023-01-12T23:27:24.245Z,18.30
2023-01-12T23:29:51.116Z,13.02
2023-01-12T23:32:18.295Z,12.25
2023-01-12T23:34:45.037Z,12.57
2023-01-12T23:37:11.915Z,19.40
2023-01-12T23:39:38.834Z,10.75
2023-01-12T23:42:05.746Z,13.65
2023-01-12T23:44:32.567Z,19.35
2023-01-12T23:47:03.120Z,18.88
2023-01-12T23:49:29.926Z,17.67
2023-01-12T23:51:56.817Z,16.60
2023-01-12T23:54:23.708Z,14.88
2023-01-12T23:56:55.291Z,19.33
2023-01-12T23:59:22.231Z,18.52
